Time;durP1;ratioP1;P1;durP2;ratioP2;P2;SDS_P1;SDS_P2;PMS_P1;PMS_P2;Temp;Humidity;BMP_temperature;BMP_pressure;BME280_temperature;BME280_humidity;BME280_pressure;Samples;Min_cycle;Max_cycle;Signal;HPM_P1;HPM_P2
2023/11/25 00:01:22;;;;;;;;;7.00;3.67;;;;;8.20;63.51;101212.97;6349201;22;45271;-83
2023/11/25 00:03:47;;;;;;;;;4.00;3.00;;;;;8.13;63.41;101210.97;6347217;22;45469;-83
2023/11/25 00:06:12;;;;;;;;;2.33;2.33;;;;;8.15;63.59;101209.28;6348443;22;46900;-83
2023/11/25 00:08:38;;;;;;;;;2.00;2.00;;;;;8.12;63.86;101211.84;6349966;22;45239;-83
2023/11/25 00:11:03;;;;;;;;;3.00;2.00;;;;;8.13;63.85;101200.38;6378949;22;45260;-84
2023/11/25 00:13:29;;;;;;;;;3.00;3.00;;;;;8.05;63.65;101201.88;6378783;22;45342;-84
2023/11/25 00:15:54;;;;;;;;;1.33;1.33;;;;;8.00;63.60;101203.50;6349440;22;47261;-84
2023/11/25 00:18:20;;;;;;;;;6.67;2.67;;;;;7.99;64.03;101194.66;6378660;22;44703;-84
2023/11/25 00:20:46;;;;;;;;;3.00;3.00;;;;;8.02;64.08;101197.41;6378496;22;45325;-84
2023/11/25 00:23:12;;;;;;;;;5.00;5.00;;;;;8.01;64.04;101192.06;6374790;22;44840;-83
2023/11/25 00:25:37;;;;;;;;;3.00;3.00;;;;;7.94;64.14;101195.38;6377212;22;45400;-82
2023/11/25 00:28:04;;;;;;;;;3.00;2.00;;;;;7.95;64.16;101194.50;6375777;22;45639;-83
2023/11/25 00:30:30;;;;;;;;;5.00;3.00;;;;;7.91;64.38;101198.81;6348734;22;44904;-82
2023/11/25 00:32:55;;;;;;;;;3.00;2.00;;;;;7.87;64.35;101196.91;6375741;22;45352;-83
2023/11/25 00:35:20;;;;;;;;;5.00;3.00;;;;;7.84;64.70;101199.47;6377651;22;45448;-83
2023/11/25 00:37:46;;;;;;;;;2.67;2.00;;;;;7.84;64.83;101195.91;6372737;22;45330;-83
2023/11/25 00:40:19;;;;;;;;;3.00;2.33;;;;;8.05;64.73;101198.34;6376714;22;44793;-83
2023/11/25 00:42:46;;;;;;;;;5.33;2.67;;;;;7.86;64.46;101194.19;6348939;22;45343;-83
2023/11/25 00:45:11;;;;;;;;;4.33;2.33;;;;;7.83;64.56;101195.00;6378205;22;45255;-83
2023/11/25 00:47:41;;;;;;;;;0.00;0.00;;;;;7.83;64.81;101200.31;6378453;22;45302;-83
2023/11/25 00:50:15;;;;;;;;;3.00;2.00;;;;;7.80;64.97;101198.47;6377328;22;45229;-84
2023/11/25 00:52:41;;;;;;;;;4.33;2.33;;;;;7.71;64.90;101187.56;6349194;22;44838;-82
2023/11/25 00:55:08;;;;;;;;;4.33;4.33;;;;;7.81;65.33;101202.00;6341494;22;47051;-83
2023/11/25 00:57:34;;;;;;;;;1.00;1.00;;;;;7.80;65.37;101187.88;6345076;22;45413;-83
2023/11/25 00:59:59;;;;;;;;;2.67;2.33;;;;;7.78;65.09;101194.88;6343840;22;44771;-83
2023/11/25 01:02:27;;;;;;;;;3.00;3.00;;;;;7.82;65.39;101188.81;6345799;22;44940;-83
2023/11/25 01:04:52;;;;;;;;;1.00;1.00;;;;;7.84;65.12;101195.91;6347021;22;45343;-83
2023/11/25 01:07:18;;;;;;;;;1.00;1.00;;;;;7.85;65.30;101188.00;6371472;22;44942;-83
2023/11/25 01:09:43;;;;;;;;;2.00;2.00;;;;;7.80;65.46;101185.22;6343726;22;44760;-83
2023/11/25 01:12:10;;;;;;;;;2.67;2.00;;;;;7.88;65.68;101197.81;6345967;22;45385;-83
2023/11/25 01:14:36;;;;;;;;;6.00;3.00;;;;;7.87;65.50;101202.19;6344807;22;45142;-84
2023/11/25 01:17:02;;;;;;;;;5.00;5.00;;;;;7.86;65.32;101200.41;6341236;22;45333;-84
2023/11/25 01:19:27;;;;;;;;;1.00;1.00;;;;;7.81;65.23;101205.53;6343217;22;45744;-83
2023/11/25 01:21:53;;;;;;;;;6.67;3.67;;;;;7.82;65.55;101202.06;6343408;22;45335;-84
2023/11/25 01:24:18;;;;;;;;;2.33;2.00;;;;;7.81;65.84;101200.25;6369397;22;47103;-83
2023/11/25 01:26:44;;;;;;;;;4.67;2.00;;;;;7.78;65.96;101202.81;6344625;22;45310;-83
2023/11/25 01:29:09;;;;;;;;;2.00;2.00;;;;;7.81;65.71;101202.88;6342376;22;44726;-83
2023/11/25 01:31:34;;;;;;;;;3.67;3.67;;;;;7.80;65.75;101200.22;6344282;22;45381;-84
2023/11/25 01:34:01;;;;;;;;;1.33;1.33;;;;;7.76;65.85;101203.63;6345648;22;45322;-83
2023/11/25 01:36:27;;;;;;;;;3.00;3.00;;;;;7.78;66.11;101202.81;6342510;22;45774;-83
2023/11/25 01:38:52;;;;;;;;;2.00;2.00;;;;;7.79;66.33;101215.19;6344391;22;45908;-83
2023/11/25 01:41:18;;;;;;;;;5.00;3.00;;;;;7.77;66.45;101216.88;6343443;22;45310;-83
2023/11/25 01:43:44;;;;;;;;;4.33;4.33;;;;;7.79;66.54;101215.19;6343651;22;46075;-83
2023/11/25 01:46:10;;;;;;;;;5.00;2.67;;;;;7.81;66.45;101218.78;6342489;22;45314;-83
2023/11/25 01:48:37;;;;;;;;;2.00;2.00;;;;;7.84;66.27;101209.13;6341687;22;44775;-83
2023/11/25 01:51:05;;;;;;;;;2.00;2.00;;;;;7.79;66.28;101220.47;6341043;22;44834;-82
2023/11/25 01:53:33;;;;;;;;;6.33;5.00;;;;;7.79;66.62;101219.59;6343389;22;47323;-84
2023/11/25 01:55:59;;;;;;;;;2.00;2.00;;;;;7.69;66.66;101207.78;6342439;22;44829;-84
2023/11/25 01:58:27;;;;;;;;;2.00;2.00;;;;;7.75;66.79;101212.38;6345893;22;45338;-84
2023/11/25 02:00:54;;;;;;;;;3.00;3.00;;;;;7.81;66.98;101223.19;6348070;22;45434;-84
2023/11/25 02:03:20;;;;;;;;;3.00;1.67;;;;;7.68;66.87;101211.28;6344597;22;47472;-84
2023/11/25 02:05:46;;;;;;;;;2.00;2.00;;;;;7.71;67.37;101210.50;6346574;22;44809;-83
2023/11/25 02:08:12;;;;;;;;;2.00;2.00;;;;;7.71;67.45;101206.09;6345466;22;44794;-84
2023/11/25 02:10:41;;;;;;;;;5.00;3.00;;;;;7.69;67.22;101213.06;6344770;22;44830;-84
2023/11/25 02:13:09;;;;;;;;;2.33;2.33;;;;;7.65;67.56;101221.78;6344324;22;47229;-84
2023/11/25 02:15:36;;;;;;;;;3.67;2.00;;;;;7.60;67.47;101213.69;6346999;22;44793;-84
2023/11/25 02:18:02;;;;;;;;;5.67;2.67;;;;;7.64;67.31;101225.28;6346118;22;45333;-84
2023/11/25 02:20:30;;;;;;;;;5.33;3.67;;;;;7.81;68.01;101208.19;6345611;22;45668;-84
2023/11/25 02:22:57;;;;;;;;;1.33;1.33;;;;;7.73;67.53;101209.69;6341641;22;46938;-84
2023/11/25 02:25:23;;;;;;;;;4.33;2.33;;;;;7.70;67.97;101217.53;6342749;22;45406;-84
2023/11/25 02:27:49;;;;;;;;;6.00;3.00;;;;;7.64;67.85;101206.75;6342310;22;45324;-84
2023/11/25 02:33:37;;;;;;;;;5.00;3.00;;;;;7.66;67.84;101202.41;6346021;22;44987;-84
2023/11/25 02:36:03;;;;;;;;;1.67;1.67;;;;;7.75;67.96;101209.75;6343898;22;45084;-83
2023/11/25 02:38:28;;;;;;;;;3.00;3.00;;;;;7.69;68.11;101206.91;6346217;22;44807;-83
2023/11/25 02:40:54;;;;;;;;;2.33;2.33;;;;;7.67;67.98;101198.91;6344291;22;45434;-83
2023/11/25 02:43:21;;;;;;;;;4.33;4.33;;;;;7.63;67.82;101206.69;6345484;22;45515;-83
2023/11/25 02:45:48;;;;;;;;;2.67;2.67;;;;;7.55;68.38;101204.72;6347404;22;45462;-83
2023/11/25 02:48:15;;;;;;;;;2.67;2.00;;;;;7.54;68.42;101202.00;6346649;22;44785;-83
2023/11/25 02:50:41;;;;;;;;;5.00;5.00;;;;;7.58;68.45;101206.56;6343454;22;44752;-83
2023/11/25 02:53:09;;;;;;;;;2.00;2.00;;;;;7.60;68.91;101213.69;6341493;22;47312;-83
2023/11/25 02:55:34;;;;;;;;;9.33;5.33;;;;;7.54;68.55;101200.25;6340590;22;45418;-83
2023/11/25 02:58:00;;;;;;;;;6.67;4.33;;;;;7.59;68.74;101209.25;6346950;22;45407;-83
2023/11/25 03:00:30;;;;;;;;;3.67;3.67;;;;;7.55;68.90;101209.06;6345202;22;45154;-83
2023/11/25 03:03:16;;;;;;;;;2.00;2.00;;;;;7.61;69.10;101203.97;6344555;22;46271;-82
2023/11/25 03:05:49;;;;;;;;;5.67;3.00;;;;;7.53;69.20;101208.13;6345279;22;45223;-84
2023/11/25 03:08:17;;;;;;;;;3.00;3.00;;;;;7.51;69.43;101216.00;6345194;22;44813;-83
2023/11/25 03:10:46;;;;;;;;;8.00;5.33;;;;;7.52;69.22;101214.28;6344693;22;45596;-84
2023/11/25 03:13:12;;;;;;;;;4.33;4.33;;;;;7.55;69.58;101209.06;6343827;22;47161;-83
2023/11/25 03:15:41;;;;;;;;;1.00;1.00;;;;;7.63;69.38;101197.00;6345416;22;45433;-81
2023/11/25 03:18:08;;;;;;;;;4.33;2.00;;;;;7.63;69.72;101207.59;6346657;22;44882;-83
2023/11/25 03:20:35;;;;;;;;;7.00;3.67;;;;;7.57;69.10;101202.09;6343832;22;44910;-83
2023/11/25 03:23:01;;;;;;;;;6.00;5.00;;;;;7.54;69.59;101202.00;6344613;22;45267;-83
2023/11/25 03:25:29;;;;;;;;;3.33;2.67;;;;;7.58;69.75;101198.59;6345752;22;45409;-82
2023/11/25 03:27:55;;;;;;;;;5.67;5.33;;;;;7.53;69.86;101203.72;6342476;22;45128;-82
2023/11/25 03:30:22;;;;;;;;;5.00;2.67;;;;;7.60;69.73;101215.44;6342782;22;45327;-82
2023/11/25 03:32:48;;;;;;;;;3.67;3.67;;;;;7.55;69.97;101202.06;6343774;22;46849;-83
2023/11/25 03:35:13;;;;;;;;;2.00;2.00;;;;;7.65;69.90;101213.81;6344995;22;45449;-83
2023/11/25 03:37:40;;;;;;;;;7.67;7.00;;;;;7.59;69.58;101205.69;6343336;22;45340;-82
2023/11/25 03:40:07;;;;;;;;;2.00;2.00;;;;;7.64;70.21;101206.75;6347650;22;44835;-83
2023/11/25 03:42:34;;;;;;;;;4.33;4.33;;;;;7.63;69.98;101197.00;6344107;22;47359;-83
2023/11/25 03:45:01;;;;;;;;;6.00;6.00;;;;;7.66;69.98;101194.47;6342939;22;44809;-82
2023/11/25 03:47:26;;;;;;;;;3.00;3.00;;;;;7.57;70.08;101195.06;6344003;22;45302;-82
2023/11/25 03:49:52;;;;;;;;;4.33;3.00;;;;;7.61;70.03;101198.69;6343799;22;45452;-84
2023/11/25 03:52:17;;;;;;;;;7.00;3.00;;;;;7.64;70.40;101208.50;6343457;22;47056;-84
2023/11/25 03:54:43;;;;;;;;;3.00;3.00;;;;;7.64;70.60;101203.22;6346066;22;45306;-83
2023/11/25 03:57:08;;;;;;;;;5.67;5.00;;;;;7.65;70.33;101215.59;6377317;22;45383;-84
2023/11/25 03:59:33;;;;;;;;;2.33;2.33;;;;;7.63;70.32;101206.69;6348046;22;45537;-84
2023/11/25 04:01:59;;;;;;;;;2.00;2.00;;;;;7.65;70.46;101211.19;6376286;22;45254;-84
2023/11/25 04:04:30;;;;;;;;;4.33;3.00;;;;;7.69;70.08;101212.19;6375073;22;45335;-84
2023/11/25 04:10:18;;;;;;;;;9.67;5.00;;;;;7.65;70.26;101207.63;6375009;22;44839;-84
2023/11/25 04:12:45;;;;;;;;;2.00;2.00;;;;;7.76;70.48;101208.91;6346891;22;47231;-84
2023/11/25 04:15:12;;;;;;;;;3.67;3.67;;;;;7.70;70.38;101216.66;6345809;22;45341;-83
2023/11/25 04:17:38;;;;;;;;;4.33;4.33;;;;;7.65;70.52;101211.19;6346550;22;44854;-83
2023/11/25 04:20:12;;;;;;;;;6.33;5.00;;;;;7.73;70.66;101198.19;6347331;22;44858;-83
2023/11/25 04:22:47;;;;;;;;;5.33;3.67;;;;;7.73;70.41;101199.09;6347853;22;47322;-83
2023/11/25 04:25:14;;;;;;;;;5.00;3.00;;;;;7.68;70.59;101208.66;6348972;22;44794;-84
2023/11/25 04:27:41;;;;;;;;;8.33;5.00;;;;;7.66;70.97;101197.13;6349108;22;45370;-83
2023/11/25 04:30:11;;;;;;;;;6.00;3.00;;;;;7.76;71.01;101204.50;6349609;22;44856;-83
2023/11/25 04:32:38;;;;;;;;;2.67;2.67;;;;;7.69;70.97;101197.19;6376319;22;46199;-83
2023/11/25 04:35:06;;;;;;;;;3.00;3.00;;;;;7.62;71.16;101211.09;6374920;22;44863;-83
2023/11/25 04:37:32;;;;;;;;;5.00;5.00;;;;;7.58;70.76;101209.19;6374723;22;45344;-84
2023/11/25 04:39:58;;;;;;;;;5.00;5.00;;;;;7.56;71.19;101210.88;6376129;22;45270;-83
2023/11/25 04:42:23;;;;;;;;;5.00;5.00;;;;;7.59;71.02;101208.34;6345409;22;47259;-83
2023/11/25 04:44:49;;;;;;;;;5.00;5.00;;;;;7.64;71.12;101212.03;6376068;22;44818;-82
2023/11/25 04:47:15;;;;;;;;;5.00;2.00;;;;;7.64;71.39;101216.44;6376796;22;45313;-83
2023/11/25 04:49:40;;;;;;;;;3.00;3.00;;;;;7.63;71.22;101212.88;6377547;22;45161;-82
2023/11/25 04:52:06;;;;;;;;;2.33;2.00;;;;;7.65;71.27;101220.88;6347331;22;46968;-82
2023/11/25 04:54:38;;;;;;;;;3.00;3.00;;;;;7.76;71.37;101212.44;6376457;22;45116;-83
2023/11/25 04:57:03;;;;;;;;;4.67;4.33;;;;;7.60;71.78;101218.09;6373058;22;45342;-83
2023/11/25 04:59:29;;;;;;;;;2.00;2.00;;;;;7.58;71.72;101212.72;6346033;22;45619;-82
2023/11/25 05:01:54;;;;;;;;;3.67;3.00;;;;;7.49;71.69;101214.16;6375110;22;45109;-82
2023/11/25 05:04:20;;;;;;;;;5.33;3.67;;;;;7.49;71.83;101219.44;6348560;22;44824;-83
2023/11/25 05:06:46;;;;;;;;;3.00;3.00;;;;;7.40;71.81;101214.75;6347698;22;45373;-83
2023/11/25 05:09:13;;;;;;;;;3.00;3.00;;;;;7.33;72.36;101218.03;6376241;22;45308;-83
2023/11/25 05:11:39;;;;;;;;;6.00;4.33;;;;;7.34;72.85;101218.09;6377249;22;46499;-82
2023/11/25 05:14:05;;;;;;;;;3.67;2.33;;;;;7.36;72.75;101219.03;6347624;22;45409;-83
2023/11/25 05:16:30;;;;;;;;;3.67;3.67;;;;;7.35;72.61;101217.25;6348316;22;44885;-82
2023/11/25 05:18:55;;;;;;;;;1.67;1.67;;;;;7.41;72.97;101217.47;6377051;22;45379;-82
2023/11/25 05:21:21;;;;;;;;;5.67;5.00;;;;;7.40;72.44;101213.00;6376692;22;45310;-83
2023/11/25 05:23:48;;;;;;;;;3.67;2.00;;;;;7.40;72.87;101218.28;6348660;22;45375;-82
2023/11/25 05:26:14;;;;;;;;;2.00;2.00;;;;;7.35;72.93;101224.25;6349508;22;44755;-83
2023/11/25 05:28:39;;;;;;;;;2.67;2.00;;;;;7.40;73.14;101220.94;6377154;22;45269;-82
2023/11/25 05:31:05;;;;;;;;;7.00;5.00;;;;;7.40;73.16;101220.06;6377918;22;45887;-83
2023/11/25 05:33:30;;;;;;;;;4.33;4.33;;;;;7.41;73.17;101225.41;6347583;22;45328;-83
2023/11/25 05:35:55;;;;;;;;;4.33;4.33;;;;;7.40;73.30;101234.16;6347889;22;44927;-82
2023/11/25 05:38:21;;;;;;;;;2.00;2.00;;;;;7.37;73.41;101220.84;6350126;22;44743;-82
2023/11/25 05:40:46;;;;;;;;;4.33;4.33;;;;;7.34;73.58;101215.44;6346348;22;52024;-83
2023/11/25 05:43:13;;;;;;;;;3.00;2.33;;;;;7.36;73.61;101220.78;6374763;22;45350;-82
2023/11/25 05:45:40;;;;;;;;;2.67;1.33;;;;;7.29;73.95;101222.34;6346488;22;44910;-82
2023/11/25 05:48:07;;;;;;;;;2.00;2.00;;;;;7.32;73.77;101227.72;6376302;22;44887;-82
2023/11/25 05:50:33;;;;;;;;;3.00;2.00;;;;;7.29;74.10;101221.41;6347107;22;47174;-82
2023/11/25 05:52:59;;;;;;;;;2.67;2.67;;;;;7.26;74.33;101218.66;6375252;22;44707;-83
2023/11/25 05:55:26;;;;;;;;;6.33;3.67;;;;;7.24;74.63;101233.59;6373885;22;44789;-83
2023/11/25 05:57:52;;;;;;;;;2.00;2.00;;;;;7.22;74.50;101225.59;6376221;22;45252;-82
2023/11/25 06:00:18;;;;;;;;;5.00;5.00;;;;;7.25;74.25;101238.94;6376638;22;45224;-82
2023/11/25 06:02:43;;;;;;;;;9.00;5.00;;;;;7.25;74.42;101241.59;6348376;22;44891;-83
2023/11/25 06:05:09;;;;;;;;;7.00;6.00;;;;;7.26;74.52;101237.19;6351128;22;45147;-83
2023/11/25 06:07:35;;;;;;;;;4.33;4.33;;;;;7.27;74.87;101245.19;6350578;22;45364;-83
2023/11/25 06:10:00;;;;;;;;;1.00;1.00;;;;;7.21;74.76;101242.28;6374721;22;45303;-83
2023/11/25 06:12:26;;;;;;;;;5.00;5.00;;;;;7.24;75.04;101246.81;6349933;22;44933;-83
2023/11/25 06:14:55;;;;;;;;;4.33;4.33;;;;;7.25;74.96;101244.22;6375890;22;45425;-83
2023/11/25 06:17:23;;;;;;;;;5.33;5.33;;;;;7.19;75.13;101242.25;6348993;22;45395;-83
2023/11/25 06:19:48;;;;;;;;;2.00;2.00;;;;;7.28;75.20;101235.50;6349218;22;48334;-83
2023/11/25 06:22:14;;;;;;;;;2.67;2.67;;;;;7.20;75.22;101240.50;6349477;22;45393;-83
2023/11/25 06:24:40;;;;;;;;;4.33;2.00;;;;;7.24;75.27;101234.47;6349293;22;45393;-83
2023/11/25 06:27:06;;;;;;;;;5.33;5.33;;;;;7.30;75.00;101241.75;6350114;22;44945;-83
2023/11/25 06:29:31;;;;;;;;;4.33;2.33;;;;;7.29;75.42;101248.78;6378714;22;45361;-84
2023/11/25 06:31:56;;;;;;;;;2.67;2.67;;;;;7.26;75.20;101246.00;6348638;22;45443;-83
2023/11/25 06:34:22;;;;;;;;;5.33;5.00;;;;;7.25;75.34;101249.53;6349171;22;44872;-83
2023/11/25 06:36:47;;;;;;;;;4.33;4.33;;;;;7.29;75.42;101247.88;6349752;22;45778;-83
2023/11/25 06:39:19;;;;;;;;;3.00;3.00;;;;;7.27;75.63;101247.84;6376808;22;45282;-83
2023/11/25 06:41:48;;;;;;;;;5.33;2.33;;;;;7.30;75.91;101245.28;6380602;22;45515;-84
2023/11/25 06:44:16;;;;;;;;;3.00;2.33;;;;;7.44;75.84;101253.72;6379709;22;44813;-83
2023/11/25 06:46:42;;;;;;;;;2.67;1.67;;;;;7.30;75.77;101245.28;6348911;22;45773;-83
2023/11/25 06:49:07;;;;;;;;;3.67;3.67;;;;;7.31;75.89;101247.09;6349196;22;47293;-83
2023/11/25 06:51:32;;;;;;;;;5.00;4.33;;;;;7.33;75.94;101256.00;6378679;22;45376;-83
2023/11/25 06:53:58;;;;;;;;;5.67;5.00;;;;;7.33;75.72;101249.78;6378054;22;45004;-83
2023/11/25 06:56:23;;;;;;;;;0.67;0.67;;;;;7.31;76.09;101247.09;6346842;22;45377;-83
2023/11/25 06:58:48;;;;;;;;;3.00;3.00;;;;;7.34;76.17;101257.78;6377988;22;45229;-83
2023/11/25 07:01:21;;;;;;;;;2.33;2.00;;;;;7.49;76.12;101254.75;6377197;22;45313;-83
2023/11/25 07:03:48;;;;;;;;;5.67;3.67;;;;;7.40;76.25;101252.69;6377970;22;45458;-83
2023/11/25 07:06:17;;;;;;;;;5.00;5.00;;;;;7.32;76.22;101242.69;6379255;22;45274;-83
2023/11/25 07:08:43;;;;;;;;;5.67;2.67;;;;;7.32;76.35;101259.47;6349975;22;47097;-83
2023/11/25 07:11:10;;;;;;;;;6.00;6.00;;;;;7.30;76.10;101255.88;6350707;22;45220;-83
2023/11/25 07:13:36;;;;;;;;;2.33;2.33;;;;;7.30;76.65;101254.97;6378639;22;45381;-83
2023/11/25 07:16:04;;;;;;;;;6.33;6.33;;;;;7.24;76.41;101250.34;6377283;22;44706;-83
2023/11/25 07:18:29;;;;;;;;;5.00;5.00;;;;;7.21;76.88;101252.88;6347277;22;47129;-83
2023/11/25 07:20:54;;;;;;;;;9.00;6.00;;;;;7.17;77.36;101246.59;6347739;22;44802;-83
2023/11/25 07:23:20;;;;;;;;;3.00;3.00;;;;;7.23;77.39;101259.16;6375089;22;45327;-83
2023/11/25 07:25:45;;;;;;;;;1.33;1.33;;;;;7.24;77.05;101260.94;6376681;22;45341;-83
2023/11/25 07:28:11;;;;;;;;;4.33;2.00;;;;;7.30;77.21;101261.16;6375545;22;45386;-84
2023/11/25 07:30:37;;;;;;;;;3.00;3.00;;;;;7.27;77.15;101261.06;6348195;22;45723;-83
2023/11/25 07:33:03;;;;;;;;;5.33;3.33;;;;;7.33;77.52;101253.34;6350988;22;45271;-83
2023/11/25 07:35:29;;;;;;;;;7.00;7.00;;;;;7.33;77.77;101252.41;6351667;22;45322;-83
2023/11/25 07:37:55;;;;;;;;;12.00;5.00;;;;;7.40;77.56;101262.38;6377801;22;45306;-83
2023/11/25 07:40:20;;;;;;;;;5.67;3.00;;;;;7.38;77.52;101257.03;6349790;22;44859;-83
2023/11/25 07:42:48;;;;;;;;;5.33;5.33;;;;;7.49;77.70;101269.75;6378959;22;44778;-83
2023/11/25 07:45:14;;;;;;;;;3.00;2.33;;;;;7.47;77.65;101268.78;6349812;22;45319;-83
2023/11/25 07:47:41;;;;;;;;;5.00;5.00;;;;;7.47;77.97;101267.03;6375487;22;47046;-83
2023/11/25 07:50:07;;;;;;;;;3.00;3.00;;;;;7.52;77.83;101267.22;6377505;22;45380;-83
2023/11/25 07:52:33;;;;;;;;;2.00;2.00;;;;;7.50;77.78;101266.25;6350272;22;45438;-83
2023/11/25 07:54:58;;;;;;;;;2.33;2.33;;;;;7.65;77.62;101280.00;6350553;22;45255;-83
2023/11/25 07:57:24;;;;;;;;;6.67;5.00;;;;;7.59;77.50;101272.78;6341351;22;47205;-83
2023/11/25 07:59:49;;;;;;;;;7.00;5.33;;;;;7.66;77.51;101265.94;6342616;22;44783;-83
2023/11/25 08:02:15;;;;;;;;;5.67;5.33;;;;;7.70;77.52;101273.13;6343464;22;44879;-82
2023/11/25 08:04:40;;;;;;;;;6.00;6.00;;;;;7.73;77.82;101270.59;6343127;22;45328;-83
2023/11/25 08:07:06;;;;;;;;;6.00;6.00;;;;;7.73;77.11;101273.22;6344782;22;45163;-83
2023/11/25 08:09:32;;;;;;;;;2.33;2.33;;;;;7.66;77.47;101276.53;6343168;22;45325;-83
2023/11/25 08:11:58;;;;;;;;;3.00;3.00;;;;;7.61;77.78;101268.44;6316965;22;44904;-83
2023/11/25 08:14:23;;;;;;;;;5.00;5.00;;;;;7.65;77.90;101272.06;6342592;22;44940;-83
2023/11/25 08:16:49;;;;;;;;;10.00;5.00;;;;;7.66;78.01;101265.06;6343683;22;45323;-83
2023/11/25 08:19:16;;;;;;;;;6.00;5.00;;;;;7.70;78.28;101273.13;6341636;22;44887;-83
2023/11/25 08:21:41;;;;;;;;;9.33;8.33;;;;;7.72;78.24;101266.16;6342402;22;45520;-83
2023/11/25 08:24:07;;;;;;;;;7.33;6.00;;;;;7.76;77.92;101268.06;6344391;22;44909;-83
2023/11/25 08:26:34;;;;;;;;;3.67;3.67;;;;;7.83;78.46;101266.50;6345537;22;45089;-83
2023/11/25 08:29:02;;;;;;;;;5.00;3.00;;;;;7.73;78.36;101261.75;6346158;22;45495;-84
2023/11/25 08:31:28;;;;;;;;;7.67;5.33;;;;;7.70;78.86;101257.25;6344677;22;45356;-83
2023/11/25 08:33:53;;;;;;;;;5.67;5.00;;;;;7.74;78.73;101259.16;6344655;22;44866;-83
2023/11/25 08:36:20;;;;;;;;;6.00;5.00;;;;;7.77;78.59;101251.31;6347060;22;45609;-83
2023/11/25 08:38:45;;;;;;;;;8.33;5.67;;;;;7.76;78.78;101257.47;6346904;22;45337;-83
2023/11/25 08:41:11;;;;;;;;;9.33;5.00;;;;;7.70;79.49;101251.97;6346773;22;45023;-82
2023/11/25 08:43:43;;;;;;;;;5.00;5.00;;;;;7.93;78.89;101260.66;6346379;22;45426;-82
2023/11/25 08:46:12;;;;;;;;;10.33;9.00;;;;;7.80;79.38;101255.81;6344121;22;46604;-83
2023/11/25 08:48:38;;;;;;;;;6.00;6.00;;;;;7.79;79.47;101254.00;6345281;22;45302;-82
2023/11/25 08:51:05;;;;;;;;;4.33;4.33;;;;;7.81;80.21;101258.50;6344196;22;44752;-83
2023/11/25 08:53:31;;;;;;;;;8.33;7.67;;;;;7.87;80.13;101256.91;6345463;22;44856;-83
2023/11/25 08:55:59;;;;;;;;;5.00;5.00;;;;;7.85;80.22;101251.56;6355033;22;45882;-82
2023/11/25 08:58:25;;;;;;;;;9.00;6.00;;;;;7.88;80.23;101256.09;6349119;22;45414;-82
2023/11/25 09:00:51;;;;;;;;;6.67;6.33;;;;;7.94;80.30;101251.88;6376518;22;44829;-83
2023/11/25 09:03:18;;;;;;;;;7.00;7.00;;;;;7.97;80.55;101248.44;6348451;22;45378;-82
2023/11/25 09:05:46;;;;;;;;;6.00;6.00;;;;;8.19;80.65;101260.63;6374669;22;47273;-83
2023/11/25 09:08:13;;;;;;;;;11.00;4.33;;;;;8.14;80.60;101265.78;6376512;22;44822;-82
2023/11/25 09:10:39;;;;;;;;;7.00;6.00;;;;;8.14;80.66;101272.81;6376175;22;44816;-82
2023/11/25 09:13:12;;;;;;;;;7.00;7.00;;;;;8.35;80.29;101268.19;6377353;22;44884;-82
2023/11/25 09:15:37;;;;;;;;;7.00;7.00;;;;;8.20;80.33;101265.06;6379610;22;45312;-82
2023/11/25 09:18:06;;;;;;;;;8.00;8.00;;;;;8.27;80.59;101258.22;6351242;22;44741;-82
2023/11/25 09:20:32;;;;;;;;;7.00;7.00;;;;;8.32;80.25;101260.16;6378368;22;45448;-81
2023/11/25 09:22:57;;;;;;;;;5.00;5.00;;;;;8.45;80.01;101266.78;6349642;22;45520;-82
2023/11/25 09:25:24;;;;;;;;;10.00;5.67;;;;;8.54;79.92;101245.88;6349259;22;46245;-83
2023/11/25 09:27:51;;;;;;;;;9.33;5.67;;;;;8.64;79.27;101256.72;6379140;22;45325;-82
2023/11/25 09:30:18;;;;;;;;;9.33;6.33;;;;;8.69;79.48;101265.75;6348962;22;44781;-82
2023/11/25 09:32:44;;;;;;;;;6.67;6.00;;;;;8.52;79.19;101252.84;6378198;22;44837;-82
2023/11/25 09:35:17;;;;;;;;;5.67;5.67;;;;;8.50;79.52;101270.44;6345047;22;46099;-82
2023/11/25 09:37:43;;;;;;;;;7.00;6.33;;;;;8.52;79.39;101262.56;6317194;22;44835;-82
2023/11/25 09:40:18;;;;;;;;;8.33;7.67;;;;;8.49;79.66;101252.75;6319716;22;44799;-81
2023/11/25 09:42:46;;;;;;;;;9.33;6.00;;;;;8.69;79.72;101261.31;6318516;22;44951;-82
2023/11/25 09:45:14;;;;;;;;;5.67;3.67;;;;;8.66;79.20;101257.69;6319814;22;45847;-83
2023/11/25 09:47:43;;;;;;;;;9.33;6.33;;;;;8.70;79.55;101246.31;6348232;22;45067;-83
2023/11/25 09:50:10;;;;;;;;;3.00;3.00;;;;;8.69;79.25;101252.47;6320290;22;44787;-82
2023/11/25 09:52:51;;;;;;;;;8.00;8.00;;;;;8.84;79.30;101255.56;6293561;22;44904;-82
2023/11/25 09:55:24;;;;;;;;;8.00;6.00;;;;;8.71;78.97;101245.47;6348748;22;45133;-81
2023/11/25 09:58:09;;;;;;;;;5.00;5.00;;;;;8.95;78.75;101266.50;6315921;22;44717;-82
2023/11/25 10:00:37;;;;;;;;;11.00;7.33;;;;;8.91;78.94;101268.16;6289871;22;44669;-82
2023/11/25 10:03:08;;;;;;;;;6.00;6.00;;;;;9.02;79.02;101266.72;6289006;22;44863;-82
2023/11/25 10:05:40;;;;;;;;;6.00;6.00;;;;;8.89;78.38;101261.03;6315693;22;45167;-82
2023/11/25 10:08:06;;;;;;;;;8.33;6.33;;;;;8.89;78.81;101259.28;6312691;22;45353;-82
2023/11/25 10:10:32;;;;;;;;;7.67;5.00;;;;;8.92;78.35;101263.75;6309042;22;44827;-82
2023/11/25 10:13:13;;;;;;;;;5.33;5.33;;;;;9.14;78.22;101274.13;6310540;22;45276;-82
2023/11/25 10:15:46;;;;;;;;;7.33;6.67;;;;;9.17;78.35;101255.66;6315312;22;44948;-82
2023/11/25 10:18:11;;;;;;;;;4.33;4.33;;;;;9.02;78.20;101261.41;6286815;22;44826;-82
2023/11/25 10:20:43;;;;;;;;;10.00;4.33;;;;;9.25;78.15;101252.28;6312736;22;45322;-82
2023/11/25 10:23:09;;;;;;;;;6.00;4.33;;;;;9.26;78.16;101257.66;6316127;22;45528;-82
2023/11/25 10:25:36;;;;;;;;;8.00;5.33;;;;;9.21;78.31;101251.34;6318073;22;45326;-81
2023/11/25 10:28:01;;;;;;;;;6.33;5.00;;;;;9.27;77.98;101248.84;6290400;22;44712;-82
2023/11/25 10:30:28;;;;;;;;;9.67;5.67;;;;;9.28;77.33;101247.97;6341607;22;45698;-82
2023/11/25 10:32:56;;;;;;;;;2.67;2.67;;;;;9.34;77.76;101250.78;6290466;22;44843;-81
2023/11/25 10:35:25;;;;;;;;;5.00;2.00;;;;;9.30;77.91;101250.69;6317103;22;46157;-82
2023/11/25 10:37:51;;;;;;;;;6.00;5.00;;;;;9.32;77.60;101241.91;6315085;22;44788;-82
2023/11/25 10:40:18;;;;;;;;;6.00;4.33;;;;;9.48;77.61;101256.47;6319660;22;45650;-83
2023/11/25 10:42:45;;;;;;;;;6.67;5.67;;;;;9.50;77.71;101243.25;6320484;22;45429;-83
2023/11/25 10:45:18;;;;;;;;;5.00;3.67;;;;;9.59;77.33;101232.84;6318516;22;44949;-83
2023/11/25 10:47:44;;;;;;;;;5.67;3.67;;;;;9.53;77.81;101228.31;6316806;22;45283;-83
2023/11/25 10:50:13;;;;;;;;;3.00;3.00;;;;;9.66;77.65;101237.47;6320436;22;44871;-83
2023/11/25 10:52:42;;;;;;;;;7.00;5.33;;;;;9.67;77.33;101218.00;6305798;22;44838;-83
2023/11/25 10:55:09;;;;;;;;;7.33;5.33;;;;;9.79;77.11;101220.97;6290901;22;46794;-82
2023/11/25 10:57:36;;;;;;;;;6.00;3.67;;;;;9.94;77.12;101208.97;6314297;22;44799;-83
2023/11/25 11:00:13;;;;;;;;;5.00;3.00;;;;;9.95;76.17;101216.94;6320156;22;45374;-81
2023/11/25 11:02:50;;;;;;;;;6.00;4.33;;;;;10.24;76.69;101218.50;6318942;22;45208;-82
2023/11/25 11:05:22;;;;;;;;;7.33;5.00;;;;;10.30;75.46;101205.38;6315935;22;47364;-82
2023/11/25 11:07:54;;;;;;;;;3.00;3.00;;;;;10.49;75.77;101220.88;6316997;22;45337;-82
2023/11/25 11:11:13;;;;;;;;;6.00;5.00;;;;;10.80;75.42;101208.22;6319623;22;44865;-82
2023/11/25 11:13:42;;;;;;;;;3.00;3.00;;;;;10.81;73.53;101204.72;6292303;22;44954;-83
2023/11/25 11:16:21;;;;;;;;;1.67;1.67;;;;;10.93;72.93;101196.97;6316153;22;47076;-83
2023/11/25 11:18:52;;;;;;;;;2.67;2.67;;;;;10.96;73.08;101207.66;6317239;22;44885;-83
2023/11/25 11:21:20;;;;;;;;;3.00;2.00;;;;;10.95;71.33;101197.91;6315739;22;44847;-83
2023/11/25 11:23:46;;;;;;;;;2.00;2.00;;;;;10.92;72.31;101204.94;6318653;22;44818;-83
2023/11/25 11:26:23;;;;;;;;;3.33;2.00;;;;;11.18;71.97;101213.44;6318502;22;45241;-83
2023/11/25 11:29:13;;;;;;;;;2.00;2.00;;;;;11.21;70.98;101210.84;6315124;22;45265;-83
2023/11/25 11:32:01;;;;;;;;;4.33;2.00;;;;;11.24;71.20;101207.31;6343455;22;44822;-83
2023/11/25 11:34:29;;;;;;;;;3.00;3.00;;;;;11.20;71.44;101206.38;6315336;22;44925;-83
2023/11/25 11:36:55;;;;;;;;;4.00;4.00;;;;;11.18;70.83;101197.44;6316043;22;45326;-83
2023/11/25 11:39:37;;;;;;;;;2.67;2.00;;;;;11.29;70.46;101190.56;6316626;22;45319;-82